< < Back
Terminal Aerodrome Forecast


Current Version              Previous Versions:   1  2  3  4  5  6  7  8  9  

Terminal Aerodrome Forecast

877
FTUS42 KCHS 020500
TAFSAV
TAF
KSAV 020535Z 0206/0306 VRB03KT P6SM SCT300
      TEMPO 0209/0212 5SM BR
     FM021500 10007KT P6SM SCT050
     FM030000 12003KT P6SM FEW250=



Latest METAR

197
SAUS80 KWBC 020800
MTRSAV
METAR KSAV 020753Z AUTO 00000KT 10SM CLR 18/17 A3004 RMK AO2 SLP171
T01830167 TSNO


USA.gov is the U.S. government's official web portal to all federal, state and local government web resources and services.